createdAt,value
2022-10-26T00:05:11.966Z,95.11
2022-10-26T00:10:13.807Z,95.00
2022-10-26T00:15:15.565Z,95.37
2022-10-26T00:20:17.459Z,95.10
2022-10-26T00:25:19.176Z,94.95
2022-10-26T00:30:22.241Z,95.30
2022-10-26T00:35:41.109Z,95.60
2022-10-26T00:40:47.581Z,94.97
2022-10-26T00:45:55.508Z,95.01
2022-10-26T00:51:00.296Z,95.70
2022-10-26T00:56:03.163Z,96.05
2022-10-26T01:01:04.978Z,95.71
2022-10-26T01:06:08.384Z,95.51
2022-10-26T01:11:11.133Z,95.13
2022-10-26T01:16:20.903Z,94.92
2022-10-26T01:21:37.237Z,94.83
2022-10-26T01:26:59.167Z,94.54
2022-10-26T01:32:18.229Z,94.86
2022-10-26T01:37:25.421Z,94.97
2022-10-26T01:42:29.886Z,95.52
2022-10-26T01:47:36.680Z,96.40
2022-10-26T01:52:38.507Z,96.17
2022-10-26T01:57:40.237Z,96.49
2022-10-26T02:02:54.274Z,96.43
2022-10-26T02:08:20.528Z,96.48
2022-10-26T02:13:53.857Z,96.68
2022-10-26T02:19:03.358Z,97.08
2022-10-26T02:24:10.526Z,97.19
2022-10-26T02:29:16.633Z,97.17
2022-10-26T02:34:24.005Z,97.03
2022-10-26T02:39:29.918Z,97.18
2022-10-26T02:44:50.073Z,97.01
2022-10-26T02:56:55.154Z,97.66
2022-10-26T03:01:58.382Z,97.13
2022-10-26T03:07:00.475Z,97.54
2022-10-26T03:12:02.158Z,97.83
2022-10-26T03:17:03.932Z,97.18
2022-10-26T03:22:05.516Z,97.46
2022-10-26T03:27:07.078Z,97.49
2022-10-26T03:32:08.714Z,97.08
2022-10-26T03:37:10.371Z,97.53
2022-10-26T03:42:11.983Z,97.59
2022-10-26T03:47:13.660Z,97.50
2022-10-26T03:52:15.196Z,97.50
2022-10-26T03:57:19.081Z,97.79
2022-10-26T04:02:20.647Z,97.76
2022-10-26T04:07:22.196Z,97.29
2022-10-26T04:12:23.772Z,97.36
2022-10-26T04:17:25.415Z,97.55
2022-10-26T04:22:27.126Z,97.68
2022-10-26T04:27:28.725Z,97.59
2022-10-26T04:32:30.932Z,97.50
2022-10-26T04:37:34.641Z,97.35
2022-10-26T04:42:46.543Z,97.59
2022-10-26T04:47:59.114Z,97.38
2022-10-26T04:53:01.024Z,97.15
2022-10-26T04:58:03.101Z,97.60
2022-10-26T05:03:07.371Z,97.13
2022-10-26T05:08:09.068Z,97.26
2022-10-26T05:13:10.797Z,97.16
2022-10-26T05:18:12.462Z,96.97
2022-10-26T05:23:18.390Z,97.03
2022-10-26T05:28:20.044Z,96.85
2022-10-26T05:33:21.657Z,96.00
2022-10-26T05:38:23.482Z,96.25
2022-10-26T05:43:27.156Z,96.02
2022-10-26T05:48:28.753Z,96.30
2022-10-26T05:53:30.396Z,96.45
2022-10-26T05:58:32.270Z,97.38
2022-10-26T06:03:42.990Z,97.22
2022-10-26T06:08:44.992Z,98.23
2022-10-26T06:13:46.919Z,98.31
2022-10-26T06:19:26.261Z,98.26
2022-10-26T06:24:45.848Z,98.35
2022-10-26T06:30:02.227Z,98.40
2022-10-26T06:35:27.309Z,98.25
2022-10-26T06:40:33.081Z,98.40
2022-10-26T06:45:35.388Z,98.58
2022-10-26T06:50:51.637Z,98.43
2022-10-26T06:55:53.860Z,98.59
2022-10-26T07:00:56.832Z,98.68
2022-10-26T07:05:58.542Z,98.68
2022-10-26T07:11:00.171Z,99.18
2022-10-26T07:16:01.931Z,98.53
2022-10-26T07:21:03.714Z,98.71
2022-10-26T07:26:05.698Z,99.22
2022-10-26T07:31:07.492Z,98.50
2022-10-26T07:36:10.987Z,98.03
2022-10-26T07:41:12.656Z,97.40
2022-10-26T07:46:14.270Z,96.74
2022-10-26T07:51:15.974Z,97.08
2022-10-26T07:56:18.099Z,97.80
2022-10-26T08:01:20.355Z,97.19
2022-10-26T08:06:26.351Z,97.06
2022-10-26T08:11:35.517Z,96.18
2022-10-26T08:16:40.269Z,94.90
2022-10-26T08:21:41.923Z,94.22
2022-10-26T08:26:43.532Z,94.98
2022-10-26T08:31:47.171Z,94.56
2022-10-26T08:36:50.369Z,94.25
2022-10-26T08:42:01.730Z,92.42
2022-10-26T08:47:20.866Z,91.87
2022-10-26T08:53:04.811Z,91.25
2022-10-26T08:58:13.591Z,91.17
2022-10-26T09:03:17.303Z,90.27
2022-10-26T09:09:00.989Z,90.00
2022-10-26T09:14:17.788Z,90.52
2022-10-26T09:20:03.419Z,91.47
2022-10-26T09:25:26.742Z,91.79
2022-10-26T09:30:30.271Z,91.67
2022-10-26T09:35:37.494Z,91.67
2022-10-26T09:40:53.106Z,91.88
2022-10-26T09:45:54.881Z,91.99
2022-10-26T09:51:01.926Z,92.34
2022-10-26T09:56:08.628Z,91.99
2022-10-26T10:01:35.685Z,92.00
2022-10-26T10:06:41.288Z,92.41
2022-10-26T10:11:55.448Z,92.32
2022-10-26T10:17:00.342Z,93.37
2022-10-26T10:22:11.593Z,94.40
2022-10-26T10:27:13.377Z,95.21
2022-10-26T10:32:23.534Z,95.81
2022-10-26T10:37:30.646Z,97.03
2022-10-26T10:42:35.622Z,97.59
2022-10-26T10:47:37.773Z,97.54
2022-10-26T10:52:39.564Z,97.01
2022-10-26T10:57:53.184Z,96.94
2022-10-26T11:03:24.933Z,97.00
2022-10-26T11:08:50.600Z,96.55
2022-10-26T11:14:05.761Z,96.09
2022-10-26T11:19:33.808Z,94.44
2022-10-26T11:24:53.269Z,93.70
2022-10-26T11:30:20.193Z,90.76
2022-10-26T11:35:31.398Z,89.30
2022-10-26T11:41:18.165Z,89.82
2022-10-26T11:46:32.454Z,90.52
2022-10-26T11:51:59.317Z,89.85
2022-10-26T11:57:03.757Z,89.75
2022-10-26T12:02:14.371Z,88.80
2022-10-26T12:07:30.387Z,88.54
2022-10-26T12:12:37.363Z,88.74
2022-10-26T12:18:26.825Z,88.79
2022-10-26T12:23:52.692Z,89.48
2022-10-26T12:29:03.456Z,90.03
2022-10-26T12:34:14.386Z,89.50
2022-10-26T12:39:34.444Z,89.11
2022-10-26T12:44:43.505Z,88.73
2022-10-26T12:50:07.116Z,88.03
2022-10-26T12:55:11.721Z,87.48
2022-10-26T13:00:16.835Z,87.68
2022-10-26T13:05:49.373Z,86.68
2022-10-26T13:11:07.141Z,85.06
2022-10-26T13:16:13.680Z,84.26
2022-10-26T13:21:18.758Z,83.70
2022-10-26T13:26:29.445Z,83.25
2022-10-26T13:31:32.854Z,82.86
2022-10-26T13:36:41.542Z,82.47
2022-10-26T13:41:47.505Z,82.33
2022-10-26T13:46:55.542Z,82.82
2022-10-26T13:52:02.180Z,82.53
2022-10-26T13:57:28.025Z,82.85
2022-10-26T14:02:32.858Z,82.34
2022-10-26T14:12:47.817Z,83.14
2022-10-26T14:17:52.047Z,83.04
2022-10-26T14:22:54.156Z,83.04
2022-10-26T14:27:55.841Z,82.92
2022-10-26T14:32:57.822Z,82.65
2022-10-26T14:38:30.180Z,83.07
2022-10-26T14:43:32.199Z,83.25
2022-10-26T14:48:35.759Z,83.48
2022-10-26T14:53:47.559Z,83.04
2022-10-26T14:58:49.521Z,83.25
2022-10-26T15:04:06.834Z,82.92
2022-10-26T15:09:33.009Z,82.53
2022-10-26T15:14:35.643Z,82.62
2022-10-26T15:19:40.063Z,82.83
2022-10-26T15:24:41.807Z,82.86
2022-10-26T15:29:50.244Z,83.06
2022-10-26T15:35:19.830Z,83.62
2022-10-26T15:40:22.521Z,84.43
2022-10-26T15:45:27.583Z,84.91
2022-10-26T15:50:30.423Z,85.65
2022-10-26T15:55:32.214Z,85.94
2022-10-26T16:00:33.830Z,86.52
2022-10-26T16:05:36.809Z,86.70
2022-10-26T16:10:38.561Z,87.25
2022-10-26T16:15:40.520Z,87.88
2022-10-26T16:20:45.494Z,88.12
2022-10-26T16:25:47.377Z,88.35
2022-10-26T16:30:49.045Z,88.46
2022-10-26T16:36:00.979Z,88.79
2022-10-26T16:41:07.863Z,88.91
2022-10-26T16:46:19.870Z,89.40
2022-10-26T16:51:26.347Z,89.72
2022-10-26T16:56:30.127Z,90.14
2022-10-26T17:01:32.295Z,90.62
2022-10-26T17:06:35.243Z,90.54
2022-10-26T17:11:37.488Z,90.68
2022-10-26T17:16:40.026Z,90.66
2022-10-26T17:21:44.623Z,91.06
2022-10-26T17:26:46.775Z,90.49
2022-10-26T17:31:48.580Z,90.81
2022-10-26T17:37:00.512Z,90.98
2022-10-26T17:42:07.629Z,91.56
2022-10-26T17:47:16.022Z,92.08
2022-10-26T17:57:42.650Z,92.82
2022-10-26T20:23:30.833Z,93.42
2022-10-26T20:28:34.835Z,93.64
2022-10-26T20:33:39.415Z,94.36
2022-10-26T20:38:41.504Z,94.75
2022-10-26T20:43:43.628Z,95.15
2022-10-26T20:48:46.049Z,95.54
2022-10-26T20:54:02.557Z,95.84
2022-10-26T20:59:06.537Z,96.11
2022-10-26T21:04:08.500Z,96.34
2022-10-26T21:09:10.223Z,96.48
2022-10-26T21:14:13.019Z,96.31
2022-10-26T21:31:15.226Z,97.23
2022-10-26T21:36:20.016Z,97.09
2022-10-26T21:46:28.930Z,96.92
2022-10-26T21:51:32.422Z,97.79
2022-10-26T21:56:34.966Z,98.39
2022-10-26T22:01:39.688Z,98.74
2022-10-26T22:06:41.802Z,99.59
2022-10-26T22:11:44.848Z,100.00
2022-10-26T22:16:46.541Z,100.00
2022-10-26T22:21:51.275Z,100.00
2022-10-26T22:26:52.905Z,100.00
2022-10-26T22:31:54.577Z,100.00
2022-10-26T22:36:56.142Z,100.00
2022-10-26T22:41:57.813Z,100.00
2022-10-26T22:46:59.740Z,100.00
2022-10-26T22:52:01.335Z,100.00
2022-10-26T22:57:03.350Z,100.00
2022-10-26T23:02:05.011Z,100.00
2022-10-26T23:07:06.701Z,100.00
2022-10-26T23:12:08.342Z,100.00
2022-10-26T23:17:11.139Z,100.00
2022-10-26T23:22:12.740Z,100.00
2022-10-26T23:27:14.405Z,100.00
2022-10-26T23:32:16.174Z,100.00
2022-10-26T23:37:19.588Z,100.00
2022-10-26T23:42:21.291Z,100.00
2022-10-26T23:47:22.940Z,100.00
2022-10-26T23:52:24.648Z,100.00
2022-10-26T23:57:26.364Z,100.00
